sensor_id;sensor_type;location;lat;lon;timestamp;P1;durP1;ratioP1;P2;durP2;ratioP2
53036;SDS011;38924;52.134;4.666;2023-04-03T00:00:54;4.40;;;3.78;;
53036;SDS011;38924;52.134;4.666;2023-04-03T00:03:19;5.13;;;3.58;;
53036;SDS011;38924;52.134;4.666;2023-04-03T00:05:45;5.22;;;3.30;;
53036;SDS011;38924;52.134;4.666;2023-04-03T00:08:11;4.38;;;3.45;;
53036;SDS011;38924;52.134;4.666;2023-04-03T00:10:37;4.05;;;3.65;;
53036;SDS011;38924;52.134;4.666;2023-04-03T00:13:03;7.13;;;3.60;;
53036;SDS011;38924;52.134;4.666;2023-04-03T00:15:29;5.55;;;3.53;;
53036;SDS011;38924;52.134;4.666;2023-04-03T00:17:55;5.88;;;4.40;;
53036;SDS011;38924;52.134;4.666;2023-04-03T00:20:21;4.82;;;3.95;;
53036;SDS011;38924;52.134;4.666;2023-04-03T00:22:46;4.30;;;3.67;;
53036;SDS011;38924;52.134;4.666;2023-04-03T00:25:12;4.30;;;3.92;;
53036;SDS011;38924;52.134;4.666;2023-04-03T00:27:38;5.15;;;3.97;;
53036;SDS011;38924;52.134;4.666;2023-04-03T00:30:05;5.47;;;3.90;;
53036;SDS011;38924;52.134;4.666;2023-04-03T00:32:32;8.45;;;4.18;;
53036;SDS011;38924;52.134;4.666;2023-04-03T00:34:59;5.90;;;3.33;;
53036;SDS011;38924;52.134;4.666;2023-04-03T00:37:25;4.53;;;3.97;;
53036;SDS011;38924;52.134;4.666;2023-04-03T00:39:50;6.43;;;3.97;;
53036;SDS011;38924;52.134;4.666;2023-04-03T00:42:16;5.60;;;3.90;;
53036;SDS011;38924;52.134;4.666;2023-04-03T00:47:13;5.45;;;3.97;;
53036;SDS011;38924;52.134;4.666;2023-04-03T00:49:39;5.85;;;3.83;;
53036;SDS011;38924;52.134;4.666;2023-04-03T00:52:05;4.22;;;3.75;;
53036;SDS011;38924;52.134;4.666;2023-04-03T00:54:32;5.25;;;4.30;;
53036;SDS011;38924;52.134;4.666;2023-04-03T00:56:58;4.03;;;3.60;;
53036;SDS011;38924;52.134;4.666;2023-04-03T00:59:26;4.03;;;3.72;;
53036;SDS011;38924;52.134;4.666;2023-04-03T01:01:52;4.28;;;3.50;;
53036;SDS011;38924;52.134;4.666;2023-04-03T01:04:26;4.38;;;3.75;;
53036;SDS011;38924;52.134;4.666;2023-04-03T01:06:55;3.73;;;3.43;;
53036;SDS011;38924;52.134;4.666;2023-04-03T01:09:21;4.38;;;3.75;;
53036;SDS011;38924;52.134;4.666;2023-04-03T01:11:48;5.75;;;3.60;;
53036;SDS011;38924;52.134;4.666;2023-04-03T01:14:13;4.72;;;3.58;;
53036;SDS011;38924;52.134;4.666;2023-04-03T01:16:39;4.18;;;3.88;;
53036;SDS011;38924;52.134;4.666;2023-04-03T01:19:06;4.93;;;4.45;;
53036;SDS011;38924;52.134;4.666;2023-04-03T01:21:41;3.60;;;3.30;;
53036;SDS011;38924;52.134;4.666;2023-04-03T01:24:21;3.83;;;3.45;;
53036;SDS011;38924;52.134;4.666;2023-04-03T01:26:51;4.15;;;2.97;;
53036;SDS011;38924;52.134;4.666;2023-04-03T01:29:17;3.53;;;3.22;;
53036;SDS011;38924;52.134;4.666;2023-04-03T01:34:14;5.70;;;3.80;;
53036;SDS011;38924;52.134;4.666;2023-04-03T01:36:40;4.47;;;4.07;;
53036;SDS011;38924;52.134;4.666;2023-04-03T01:39:06;5.90;;;3.97;;
53036;SDS011;38924;52.134;4.666;2023-04-03T01:41:32;6.53;;;4.25;;
53036;SDS011;38924;52.134;4.666;2023-04-03T01:46:32;6.82;;;3.47;;
53036;SDS011;38924;52.134;4.666;2023-04-03T01:48:58;3.45;;;3.05;;
53036;SDS011;38924;52.134;4.666;2023-04-03T01:51:23;5.00;;;3.75;;
53036;SDS011;38924;52.134;4.666;2023-04-03T01:53:49;6.00;;;3.78;;
53036;SDS011;38924;52.134;4.666;2023-04-03T01:56:15;6.90;;;4.13;;
53036;SDS011;38924;52.134;4.666;2023-04-03T01:58:44;4.15;;;3.33;;
53036;SDS011;38924;52.134;4.666;2023-04-03T02:01:10;6.45;;;4.35;;
53036;SDS011;38924;52.134;4.666;2023-04-03T02:03:36;4.90;;;3.55;;
53036;SDS011;38924;52.134;4.666;2023-04-03T02:06:02;4.68;;;3.70;;
53036;SDS011;38924;52.134;4.666;2023-04-03T02:08:27;3.80;;;3.50;;
53036;SDS011;38924;52.134;4.666;2023-04-03T02:10:53;4.40;;;3.50;;
53036;SDS011;38924;52.134;4.666;2023-04-03T02:13:19;3.88;;;3.53;;
53036;SDS011;38924;52.134;4.666;2023-04-03T02:15:45;3.75;;;3.25;;
53036;SDS011;38924;52.134;4.666;2023-04-03T02:18:11;5.82;;;3.70;;
53036;SDS011;38924;52.134;4.666;2023-04-03T02:20:37;3.42;;;3.13;;
53036;SDS011;38924;52.134;4.666;2023-04-03T02:23:02;3.40;;;2.95;;
53036;SDS011;38924;52.134;4.666;2023-04-03T02:25:30;4.82;;;3.42;;
53036;SDS011;38924;52.134;4.666;2023-04-03T02:27:56;6.15;;;4.03;;
53036;SDS011;38924;52.134;4.666;2023-04-03T02:30:24;4.25;;;3.83;;
53036;SDS011;38924;52.134;4.666;2023-04-03T02:32:49;4.78;;;3.50;;
53036;SDS011;38924;52.134;4.666;2023-04-03T02:35:15;3.53;;;3.22;;
53036;SDS011;38924;52.134;4.666;2023-04-03T02:37:41;4.60;;;3.63;;
53036;SDS011;38924;52.134;4.666;2023-04-03T02:40:07;3.60;;;3.15;;
53036;SDS011;38924;52.134;4.666;2023-04-03T02:42:34;3.58;;;3.28;;
53036;SDS011;38924;52.134;4.666;2023-04-03T02:45:00;5.78;;;3.53;;
53036;SDS011;38924;52.134;4.666;2023-04-03T02:47:27;4.18;;;3.22;;
53036;SDS011;38924;52.134;4.666;2023-04-03T02:49:53;3.70;;;3.22;;
53036;SDS011;38924;52.134;4.666;2023-04-03T02:52:19;7.47;;;3.83;;
53036;SDS011;38924;52.134;4.666;2023-04-03T02:54:46;5.65;;;3.78;;
53036;SDS011;38924;52.134;4.666;2023-04-03T02:57:12;7.25;;;4.05;;
53036;SDS011;38924;52.134;4.666;2023-04-03T02:59:38;5.10;;;3.72;;
53036;SDS011;38924;52.134;4.666;2023-04-03T03:02:08;6.40;;;3.65;;
53036;SDS011;38924;52.134;4.666;2023-04-03T03:04:34;5.70;;;4.03;;
53036;SDS011;38924;52.134;4.666;2023-04-03T03:07:00;4.35;;;3.75;;
53036;SDS011;38924;52.134;4.666;2023-04-03T03:09:27;4.05;;;3.35;;
53036;SDS011;38924;52.134;4.666;2023-04-03T03:11:57;3.70;;;3.40;;
53036;SDS011;38924;52.134;4.666;2023-04-03T03:14:25;7.68;;;3.72;;
53036;SDS011;38924;52.134;4.666;2023-04-03T03:16:51;7.82;;;3.92;;
53036;SDS011;38924;52.134;4.666;2023-04-03T03:19:17;6.65;;;3.45;;
53036;SDS011;38924;52.134;4.666;2023-04-03T03:21:42;5.38;;;3.88;;
53036;SDS011;38924;52.134;4.666;2023-04-03T03:24:08;8.30;;;4.18;;
53036;SDS011;38924;52.134;4.666;2023-04-03T03:26:34;5.78;;;4.35;;
53036;SDS011;38924;52.134;4.666;2023-04-03T03:29:01;5.50;;;3.63;;
53036;SDS011;38924;52.134;4.666;2023-04-03T03:31:28;4.10;;;3.78;;
53036;SDS011;38924;52.134;4.666;2023-04-03T03:33:53;6.97;;;3.88;;
53036;SDS011;38924;52.134;4.666;2023-04-03T03:36:21;5.95;;;3.33;;
53036;SDS011;38924;52.134;4.666;2023-04-03T03:38:46;5.53;;;3.42;;
53036;SDS011;38924;52.134;4.666;2023-04-03T03:41:12;4.57;;;3.83;;
53036;SDS011;38924;52.134;4.666;2023-04-03T03:43:40;7.15;;;4.28;;
53036;SDS011;38924;52.134;4.666;2023-04-03T03:46:06;4.72;;;3.25;;
53036;SDS011;38924;52.134;4.666;2023-04-03T03:48:35;6.05;;;3.67;;
53036;SDS011;38924;52.134;4.666;2023-04-03T03:51:03;8.85;;;3.95;;
53036;SDS011;38924;52.134;4.666;2023-04-03T03:53:33;5.00;;;4.07;;
53036;SDS011;38924;52.134;4.666;2023-04-03T03:56:04;5.72;;;3.60;;
53036;SDS011;38924;52.134;4.666;2023-04-03T03:58:30;6.47;;;3.90;;
53036;SDS011;38924;52.134;4.666;2023-04-03T04:01:02;8.07;;;3.45;;
53036;SDS011;38924;52.134;4.666;2023-04-03T04:03:29;3.78;;;2.88;;
53036;SDS011;38924;52.134;4.666;2023-04-03T04:05:55;4.72;;;3.30;;
53036;SDS011;38924;52.134;4.666;2023-04-03T04:08:21;10.73;;;6.10;;
53036;SDS011;38924;52.134;4.666;2023-04-03T04:10:47;10.15;;;4.18;;
53036;SDS011;38924;52.134;4.666;2023-04-03T04:13:14;6.75;;;3.50;;
53036;SDS011;38924;52.134;4.666;2023-04-03T04:15:42;7.65;;;3.92;;
53036;SDS011;38924;52.134;4.666;2023-04-03T04:18:08;5.90;;;3.38;;
53036;SDS011;38924;52.134;4.666;2023-04-03T04:20:34;7.45;;;4.50;;
53036;SDS011;38924;52.134;4.666;2023-04-03T04:23:01;7.07;;;4.10;;
53036;SDS011;38924;52.134;4.666;2023-04-03T04:25:27;7.82;;;3.63;;
53036;SDS011;38924;52.134;4.666;2023-04-03T04:27:53;4.57;;;3.72;;
53036;SDS011;38924;52.134;4.666;2023-04-03T04:30:19;3.42;;;2.85;;
53036;SDS011;38924;52.134;4.666;2023-04-03T04:32:49;9.35;;;3.75;;
53036;SDS011;38924;52.134;4.666;2023-04-03T04:35:15;6.75;;;3.90;;
53036;SDS011;38924;52.134;4.666;2023-04-03T04:37:43;7.03;;;4.22;;
53036;SDS011;38924;52.134;4.666;2023-04-03T04:40:09;7.05;;;4.22;;
53036;SDS011;38924;52.134;4.666;2023-04-03T04:42:35;9.32;;;4.28;;
53036;SDS011;38924;52.134;4.666;2023-04-03T04:45:01;8.95;;;4.22;;
53036;SDS011;38924;52.134;4.666;2023-04-03T04:47:28;8.50;;;3.97;;
53036;SDS011;38924;52.134;4.666;2023-04-03T04:49:54;8.30;;;3.85;;
53036;SDS011;38924;52.134;4.666;2023-04-03T04:52:20;5.13;;;3.45;;
53036;SDS011;38924;52.134;4.666;2023-04-03T04:54:46;7.60;;;4.20;;
53036;SDS011;38924;52.134;4.666;2023-04-03T04:57:12;10.60;;;5.13;;
53036;SDS011;38924;52.134;4.666;2023-04-03T04:59:38;9.57;;;5.07;;
53036;SDS011;38924;52.134;4.666;2023-04-03T05:02:06;11.82;;;5.47;;
53036;SDS011;38924;52.134;4.666;2023-04-03T05:04:32;10.32;;;5.22;;
53036;SDS011;38924;52.134;4.666;2023-04-03T05:07:04;10.25;;;4.47;;
53036;SDS011;38924;52.134;4.666;2023-04-03T05:09:33;6.35;;;3.53;;
53036;SDS011;38924;52.134;4.666;2023-04-03T05:11:59;7.95;;;4.70;;
53036;SDS011;38924;52.134;4.666;2023-04-03T05:14:29;11.20;;;4.38;;
53036;SDS011;38924;52.134;4.666;2023-04-03T05:17:00;7.97;;;4.00;;
53036;SDS011;38924;52.134;4.666;2023-04-03T05:19:29;9.50;;;5.68;;
53036;SDS011;38924;52.134;4.666;2023-04-03T05:21:55;4.28;;;3.47;;
53036;SDS011;38924;52.134;4.666;2023-04-03T05:24:21;6.45;;;3.90;;
53036;SDS011;38924;52.134;4.666;2023-04-03T05:26:47;13.23;;;5.13;;
53036;SDS011;38924;52.134;4.666;2023-04-03T05:29:14;5.40;;;4.13;;
53036;SDS011;38924;52.134;4.666;2023-04-03T05:31:40;9.20;;;4.85;;
53036;SDS011;38924;52.134;4.666;2023-04-03T05:34:08;7.68;;;4.18;;
53036;SDS011;38924;52.134;4.666;2023-04-03T05:36:35;8.05;;;4.57;;
53036;SDS011;38924;52.134;4.666;2023-04-03T05:39:04;11.40;;;4.38;;
53036;SDS011;38924;52.134;4.666;2023-04-03T05:41:30;9.65;;;4.57;;
53036;SDS011;38924;52.134;4.666;2023-04-03T05:43:56;9.15;;;4.55;;
53036;SDS011;38924;52.134;4.666;2023-04-03T05:46:23;9.43;;;4.10;;
53036;SDS011;38924;52.134;4.666;2023-04-03T05:48:53;6.32;;;3.85;;
53036;SDS011;38924;52.134;4.666;2023-04-03T05:51:23;6.53;;;4.05;;
53036;SDS011;38924;52.134;4.666;2023-04-03T05:54:13;6.28;;;3.67;;
53036;SDS011;38924;52.134;4.666;2023-04-03T05:56:41;9.00;;;3.75;;
53036;SDS011;38924;52.134;4.666;2023-04-03T05:59:07;6.47;;;3.80;;
53036;SDS011;38924;52.134;4.666;2023-04-03T06:01:33;8.25;;;4.28;;
53036;SDS011;38924;52.134;4.666;2023-04-03T06:04:00;7.75;;;4.82;;
53036;SDS011;38924;52.134;4.666;2023-04-03T06:06:26;7.95;;;4.38;;
53036;SDS011;38924;52.134;4.666;2023-04-03T06:09:09;8.70;;;4.00;;
53036;SDS011;38924;52.134;4.666;2023-04-03T06:11:34;7.70;;;4.10;;
53036;SDS011;38924;52.134;4.666;2023-04-03T06:14:06;8.45;;;4.95;;
53036;SDS011;38924;52.134;4.666;2023-04-03T06:16:32;5.28;;;3.92;;
53036;SDS011;38924;52.134;4.666;2023-04-03T06:18:58;7.63;;;5.10;;
53036;SDS011;38924;52.134;4.666;2023-04-03T06:21:28;10.50;;;5.65;;
53036;SDS011;38924;52.134;4.666;2023-04-03T06:23:53;5.75;;;4.40;;
53036;SDS011;38924;52.134;4.666;2023-04-03T06:26:19;7.88;;;4.00;;
53036;SDS011;38924;52.134;4.666;2023-04-03T06:28:46;7.22;;;4.07;;
53036;SDS011;38924;52.134;4.666;2023-04-03T06:31:11;9.50;;;4.93;;
53036;SDS011;38924;52.134;4.666;2023-04-03T06:33:37;12.90;;;4.97;;
53036;SDS011;38924;52.134;4.666;2023-04-03T06:36:03;7.80;;;4.80;;
53036;SDS011;38924;52.134;4.666;2023-04-03T06:38:29;6.45;;;4.53;;
53036;SDS011;38924;52.134;4.666;2023-04-03T06:40:55;7.82;;;5.72;;
53036;SDS011;38924;52.134;4.666;2023-04-03T06:43:21;10.70;;;5.88;;
53036;SDS011;38924;52.134;4.666;2023-04-03T06:45:47;11.27;;;5.97;;
53036;SDS011;38924;52.134;4.666;2023-04-03T06:48:13;6.85;;;5.25;;
53036;SDS011;38924;52.134;4.666;2023-04-03T06:50:38;8.10;;;5.43;;
53036;SDS011;38924;52.134;4.666;2023-04-03T06:53:04;8.25;;;5.82;;
53036;SDS011;38924;52.134;4.666;2023-04-03T06:55:31;9.02;;;5.60;;
53036;SDS011;38924;52.134;4.666;2023-04-03T06:57:57;10.50;;;5.53;;
53036;SDS011;38924;52.134;4.666;2023-04-03T07:00:22;11.48;;;5.60;;
53036;SDS011;38924;52.134;4.666;2023-04-03T07:02:48;10.77;;;5.70;;
53036;SDS011;38924;52.134;4.666;2023-04-03T07:05:14;8.25;;;5.50;;
53036;SDS011;38924;52.134;4.666;2023-04-03T07:07:39;6.47;;;5.65;;
53036;SDS011;38924;52.134;4.666;2023-04-03T07:10:06;8.48;;;6.40;;
53036;SDS011;38924;52.134;4.666;2023-04-03T07:12:33;8.35;;;5.78;;
53036;SDS011;38924;52.134;4.666;2023-04-03T07:14:58;6.85;;;5.13;;
53036;SDS011;38924;52.134;4.666;2023-04-03T07:17:24;10.95;;;5.93;;
53036;SDS011;38924;52.134;4.666;2023-04-03T07:19:51;10.10;;;6.05;;
53036;SDS011;38924;52.134;4.666;2023-04-03T07:22:17;10.18;;;5.40;;
53036;SDS011;38924;52.134;4.666;2023-04-03T07:24:42;10.20;;;6.45;;
53036;SDS011;38924;52.134;4.666;2023-04-03T07:27:08;8.00;;;5.72;;
53036;SDS011;38924;52.134;4.666;2023-04-03T07:29:34;7.97;;;5.50;;
53036;SDS011;38924;52.134;4.666;2023-04-03T07:32:01;6.15;;;4.93;;
53036;SDS011;38924;52.134;4.666;2023-04-03T07:34:29;13.35;;;5.20;;
53036;SDS011;38924;52.134;4.666;2023-04-03T07:36:56;7.30;;;6.10;;
53036;SDS011;38924;52.134;4.666;2023-04-03T07:39:22;7.47;;;6.47;;
53036;SDS011;38924;52.134;4.666;2023-04-03T07:41:47;8.93;;;4.50;;
53036;SDS011;38924;52.134;4.666;2023-04-03T07:44:13;12.10;;;5.18;;
53036;SDS011;38924;52.134;4.666;2023-04-03T07:46:39;7.97;;;5.38;;
53036;SDS011;38924;52.134;4.666;2023-04-03T07:49:06;9.90;;;5.15;;
53036;SDS011;38924;52.134;4.666;2023-04-03T07:51:32;9.10;;;5.93;;
53036;SDS011;38924;52.134;4.666;2023-04-03T07:54:01;10.45;;;4.97;;
53036;SDS011;38924;52.134;4.666;2023-04-03T07:56:26;7.88;;;4.55;;
53036;SDS011;38924;52.134;4.666;2023-04-03T07:58:53;8.43;;;5.68;;
53036;SDS011;38924;52.134;4.666;2023-04-03T08:01:19;7.03;;;4.53;;
53036;SDS011;38924;52.134;4.666;2023-04-03T08:03:47;8.18;;;4.18;;
53036;SDS011;38924;52.134;4.666;2023-04-03T08:06:13;6.22;;;4.15;;
53036;SDS011;38924;52.134;4.666;2023-04-03T08:08:40;6.50;;;4.10;;
53036;SDS011;38924;52.134;4.666;2023-04-03T08:11:06;8.80;;;5.22;;
53036;SDS011;38924;52.134;4.666;2023-04-03T08:13:33;11.02;;;5.78;;
53036;SDS011;38924;52.134;4.666;2023-04-03T08:16:15;7.38;;;4.20;;
53036;SDS011;38924;52.134;4.666;2023-04-03T08:18:41;9.55;;;3.90;;
53036;SDS011;38924;52.134;4.666;2023-04-03T08:21:08;6.55;;;3.88;;
53036;SDS011;38924;52.134;4.666;2023-04-03T08:23:34;16.20;;;4.80;;
53036;SDS011;38924;52.134;4.666;2023-04-03T08:26:05;7.35;;;4.60;;
53036;SDS011;38924;52.134;4.666;2023-04-03T08:28:33;10.38;;;4.45;;
53036;SDS011;38924;52.134;4.666;2023-04-03T08:31:02;8.75;;;4.45;;
53036;SDS011;38924;52.134;4.666;2023-04-03T08:33:28;10.15;;;4.45;;
53036;SDS011;38924;52.134;4.666;2023-04-03T08:35:53;7.50;;;4.55;;
53036;SDS011;38924;52.134;4.666;2023-04-03T08:38:19;7.35;;;4.20;;
53036;SDS011;38924;52.134;4.666;2023-04-03T08:40:45;6.63;;;5.03;;
53036;SDS011;38924;52.134;4.666;2023-04-03T08:43:30;7.78;;;5.25;;
53036;SDS011;38924;52.134;4.666;2023-04-03T08:45:57;8.70;;;4.70;;
53036;SDS011;38924;52.134;4.666;2023-04-03T08:48:36;10.73;;;4.70;;
53036;SDS011;38924;52.134;4.666;2023-04-03T08:51:06;7.90;;;4.45;;
53036;SDS011;38924;52.134;4.666;2023-04-03T08:53:37;6.88;;;5.30;;
53036;SDS011;38924;52.134;4.666;2023-04-03T08:56:05;12.52;;;5.40;;
53036;SDS011;38924;52.134;4.666;2023-04-03T08:58:35;6.53;;;5.13;;
53036;SDS011;38924;52.134;4.666;2023-04-03T09:01:06;8.23;;;4.68;;
53036;SDS011;38924;52.134;4.666;2023-04-03T09:03:40;5.43;;;4.70;;
53036;SDS011;38924;52.134;4.666;2023-04-03T09:06:07;7.63;;;4.93;;
53036;SDS011;38924;52.134;4.666;2023-04-03T09:11:16;8.10;;;5.78;;
53036;SDS011;38924;52.134;4.666;2023-04-03T09:13:49;6.07;;;4.35;;
53036;SDS011;38924;52.134;4.666;2023-04-03T09:16:20;5.93;;;5.30;;
53036;SDS011;38924;52.134;4.666;2023-04-03T09:18:48;6.55;;;4.85;;
53036;SDS011;38924;52.134;4.666;2023-04-03T09:21:37;8.32;;;5.07;;
53036;SDS011;38924;52.134;4.666;2023-04-03T09:24:04;5.35;;;3.42;;
53036;SDS011;38924;52.134;4.666;2023-04-03T09:26:33;5.18;;;4.22;;
53036;SDS011;38924;52.134;4.666;2023-04-03T09:29:02;4.85;;;4.35;;
53036;SDS011;38924;52.134;4.666;2023-04-03T09:31:34;5.20;;;4.22;;
53036;SDS011;38924;52.134;4.666;2023-04-03T09:34:06;4.88;;;4.47;;
53036;SDS011;38924;52.134;4.666;2023-04-03T09:41:33;4.95;;;3.80;;
53036;SDS011;38924;52.134;4.666;2023-04-03T09:43:59;4.63;;;3.85;;
53036;SDS011;38924;52.134;4.666;2023-04-03T09:46:32;5.57;;;4.45;;
53036;SDS011;38924;52.134;4.666;2023-04-03T09:48:59;5.03;;;4.63;;
53036;SDS011;38924;52.134;4.666;2023-04-03T09:51:26;6.10;;;4.53;;
53036;SDS011;38924;52.134;4.666;2023-04-03T09:53:52;4.40;;;4.05;;
53036;SDS011;38924;52.134;4.666;2023-04-03T09:58:51;5.68;;;5.18;;
53036;SDS011;38924;52.134;4.666;2023-04-03T10:01:30;5.15;;;4.55;;
53036;SDS011;38924;52.134;4.666;2023-04-03T10:04:16;4.75;;;4.32;;
53036;SDS011;38924;52.134;4.666;2023-04-03T10:06:46;5.10;;;4.30;;
53036;SDS011;38924;52.134;4.666;2023-04-03T10:12:11;5.63;;;4.07;;
53036;SDS011;38924;52.134;4.666;2023-04-03T10:14:57;5.60;;;3.47;;
53036;SDS011;38924;52.134;4.666;2023-04-03T10:17:32;7.72;;;4.10;;
53036;SDS011;38924;52.134;4.666;2023-04-03T10:20:02;4.50;;;3.70;;
53036;SDS011;38924;52.134;4.666;2023-04-03T10:25:09;4.63;;;4.00;;
53036;SDS011;38924;52.134;4.666;2023-04-03T10:27:53;6.35;;;3.97;;
53036;SDS011;38924;52.134;4.666;2023-04-03T10:30:32;7.78;;;3.90;;
53036;SDS011;38924;52.134;4.666;2023-04-03T10:35:44;5.18;;;3.85;;
53036;SDS011;38924;52.134;4.666;2023-04-03T10:43:56;4.47;;;4.07;;
53036;SDS011;38924;52.134;4.666;2023-04-03T10:46:35;4.93;;;4.50;;
53036;SDS011;38924;52.134;4.666;2023-04-03T10:52:06;4.50;;;4.15;;
53036;SDS011;38924;52.134;4.666;2023-04-03T10:57:28;5.10;;;4.75;;
53036;SDS011;38924;52.134;4.666;2023-04-03T11:00:14;5.85;;;5.45;;
53036;SDS011;38924;52.134;4.666;2023-04-03T11:02:54;5.47;;;5.07;;
53036;SDS011;38924;52.134;4.666;2023-04-03T11:10:39;8.30;;;5.18;;
53036;SDS011;38924;52.134;4.666;2023-04-03T11:13:08;6.45;;;6.00;;
53036;SDS011;38924;52.134;4.666;2023-04-03T11:15:36;7.45;;;5.63;;
53036;SDS011;38924;52.134;4.666;2023-04-03T11:18:06;7.00;;;5.72;;
53036;SDS011;38924;52.134;4.666;2023-04-03T11:20:34;9.32;;;5.65;;
53036;SDS011;38924;52.134;4.666;2023-04-03T11:23:04;6.13;;;5.63;;
53036;SDS011;38924;52.134;4.666;2023-04-03T11:25:34;11.00;;;6.13;;
53036;SDS011;38924;52.134;4.666;2023-04-03T11:28:06;5.95;;;5.30;;
53036;SDS011;38924;52.134;4.666;2023-04-03T11:36:03;6.25;;;5.95;;
53036;SDS011;38924;52.134;4.666;2023-04-03T11:38:35;5.97;;;5.57;;
53036;SDS011;38924;52.134;4.666;2023-04-03T11:41:02;6.57;;;6.10;;
53036;SDS011;38924;52.134;4.666;2023-04-03T11:43:33;5.57;;;5.07;;
53036;SDS011;38924;52.134;4.666;2023-04-03T11:46:00;6.30;;;5.70;;
53036;SDS011;38924;52.134;4.666;2023-04-03T11:50:52;5.82;;;5.43;;
53036;SDS011;38924;52.134;4.666;2023-04-03T12:05:52;6.13;;;5.72;;
53036;SDS011;38924;52.134;4.666;2023-04-03T12:08:29;8.80;;;7.10;;
53036;SDS011;38924;52.134;4.666;2023-04-03T12:16:21;7.82;;;7.18;;
53036;SDS011;38924;52.134;4.666;2023-04-03T12:21:19;7.90;;;6.22;;
53036;SDS011;38924;52.134;4.666;2023-04-03T12:29:10;7.13;;;6.63;;
53036;SDS011;38924;52.134;4.666;2023-04-03T12:39:51;7.28;;;6.72;;
53036;SDS011;38924;52.134;4.666;2023-04-03T12:42:24;7.38;;;6.95;;
53036;SDS011;38924;52.134;4.666;2023-04-03T12:47:28;8.90;;;8.15;;
53036;SDS011;38924;52.134;4.666;2023-04-03T12:49:55;9.45;;;6.57;;
53036;SDS011;38924;52.134;4.666;2023-04-03T12:55:27;9.18;;;8.48;;
53036;SDS011;38924;52.134;4.666;2023-04-03T12:57:52;8.70;;;7.85;;
53036;SDS011;38924;52.134;4.666;2023-04-03T13:00:19;7.22;;;6.72;;
53036;SDS011;38924;52.134;4.666;2023-04-03T13:02:45;7.72;;;7.05;;
53036;SDS011;38924;52.134;4.666;2023-04-03T13:05:16;7.65;;;7.15;;
53036;SDS011;38924;52.134;4.666;2023-04-03T13:07:42;7.35;;;6.85;;
53036;SDS011;38924;52.134;4.666;2023-04-03T13:12:44;8.65;;;7.80;;
53036;SDS011;38924;52.134;4.666;2023-04-03T13:15:21;7.55;;;6.88;;
53036;SDS011;38924;52.134;4.666;2023-04-03T13:17:49;7.72;;;7.07;;
53036;SDS011;38924;52.134;4.666;2023-04-03T13:20:24;8.40;;;7.65;;
53036;SDS011;38924;52.134;4.666;2023-04-03T13:22:55;8.52;;;7.82;;
53036;SDS011;38924;52.134;4.666;2023-04-03T13:25:22;8.00;;;7.30;;
53036;SDS011;38924;52.134;4.666;2023-04-03T13:27:49;8.98;;;8.43;;
53036;SDS011;38924;52.134;4.666;2023-04-03T13:30:20;8.10;;;7.60;;
53036;SDS011;38924;52.134;4.666;2023-04-03T13:32:46;7.75;;;6.97;;
53036;SDS011;38924;52.134;4.666;2023-04-03T13:35:32;8.18;;;7.63;;
53036;SDS011;38924;52.134;4.666;2023-04-03T13:38:06;8.32;;;7.75;;
53036;SDS011;38924;52.134;4.666;2023-04-03T13:40:32;8.85;;;8.05;;
53036;SDS011;38924;52.134;4.666;2023-04-03T13:43:02;7.65;;;7.05;;
53036;SDS011;38924;52.134;4.666;2023-04-03T13:45:31;11.93;;;6.60;;
53036;SDS011;38924;52.134;4.666;2023-04-03T13:48:08;6.53;;;5.95;;
53036;SDS011;38924;52.134;4.666;2023-04-03T13:50:41;7.75;;;7.15;;
53036;SDS011;38924;52.134;4.666;2023-04-03T13:53:15;9.93;;;7.03;;
53036;SDS011;38924;52.134;4.666;2023-04-03T13:55:55;7.28;;;6.75;;
53036;SDS011;38924;52.134;4.666;2023-04-03T13:58:23;7.05;;;6.38;;
53036;SDS011;38924;52.134;4.666;2023-04-03T14:01:14;7.40;;;6.72;;
53036;SDS011;38924;52.134;4.666;2023-04-03T14:03:45;10.10;;;7.32;;
53036;SDS011;38924;52.134;4.666;2023-04-03T14:06:12;7.45;;;6.53;;
53036;SDS011;38924;52.134;4.666;2023-04-03T14:08:39;8.05;;;7.38;;
53036;SDS011;38924;52.134;4.666;2023-04-03T14:11:05;6.43;;;5.85;;
53036;SDS011;38924;52.134;4.666;2023-04-03T14:13:31;7.82;;;7.22;;
53036;SDS011;38924;52.134;4.666;2023-04-03T14:15:57;8.63;;;7.93;;
53036;SDS011;38924;52.134;4.666;2023-04-03T14:18:22;8.68;;;8.07;;
53036;SDS011;38924;52.134;4.666;2023-04-03T14:20:48;8.38;;;7.57;;
53036;SDS011;38924;52.134;4.666;2023-04-03T14:23:14;6.65;;;6.22;;
53036;SDS011;38924;52.134;4.666;2023-04-03T14:25:40;9.27;;;6.75;;
53036;SDS011;38924;52.134;4.666;2023-04-03T14:28:14;8.23;;;7.40;;
53036;SDS011;38924;52.134;4.666;2023-04-03T14:30:40;6.68;;;6.15;;
53036;SDS011;38924;52.134;4.666;2023-04-03T14:33:06;7.00;;;6.50;;
53036;SDS011;38924;52.134;4.666;2023-04-03T14:35:32;6.90;;;6.30;;
53036;SDS011;38924;52.134;4.666;2023-04-03T14:37:57;7.35;;;6.70;;
53036;SDS011;38924;52.134;4.666;2023-04-03T14:40:24;7.95;;;7.18;;
53036;SDS011;38924;52.134;4.666;2023-04-03T14:42:51;8.02;;;7.45;;
53036;SDS011;38924;52.134;4.666;2023-04-03T14:45:20;7.10;;;6.60;;
53036;SDS011;38924;52.134;4.666;2023-04-03T14:47:47;7.88;;;7.07;;
53036;SDS011;38924;52.134;4.666;2023-04-03T14:50:14;7.30;;;6.70;;
53036;SDS011;38924;52.134;4.666;2023-04-03T14:52:40;7.57;;;7.03;;
53036;SDS011;38924;52.134;4.666;2023-04-03T14:55:06;7.85;;;7.35;;
53036;SDS011;38924;52.134;4.666;2023-04-03T14:57:32;6.10;;;5.70;;
53036;SDS011;38924;52.134;4.666;2023-04-03T14:59:58;6.45;;;5.95;;
53036;SDS011;38924;52.134;4.666;2023-04-03T15:04:53;9.75;;;7.40;;
53036;SDS011;38924;52.134;4.666;2023-04-03T15:07:19;7.45;;;6.85;;
53036;SDS011;38924;52.134;4.666;2023-04-03T15:09:45;9.35;;;7.13;;
53036;SDS011;38924;52.134;4.666;2023-04-03T15:12:10;6.57;;;5.97;;
53036;SDS011;38924;52.134;4.666;2023-04-03T15:14:36;7.22;;;6.63;;
53036;SDS011;38924;52.134;4.666;2023-04-03T15:17:02;9.55;;;7.40;;
53036;SDS011;38924;52.134;4.666;2023-04-03T15:19:30;8.07;;;7.47;;
53036;SDS011;38924;52.134;4.666;2023-04-03T15:21:56;8.80;;;6.65;;
53036;SDS011;38924;52.134;4.666;2023-04-03T15:24:21;7.50;;;6.90;;
53036;SDS011;38924;52.134;4.666;2023-04-03T15:26:47;7.85;;;7.25;;
53036;SDS011;38924;52.134;4.666;2023-04-03T15:29:13;9.07;;;8.18;;
53036;SDS011;38924;52.134;4.666;2023-04-03T15:31:38;8.85;;;7.00;;
53036;SDS011;38924;52.134;4.666;2023-04-03T15:34:05;7.45;;;6.75;;
53036;SDS011;38924;52.134;4.666;2023-04-03T15:36:31;6.38;;;5.93;;
53036;SDS011;38924;52.134;4.666;2023-04-03T15:38:57;9.63;;;6.68;;
53036;SDS011;38924;52.134;4.666;2023-04-03T15:41:22;6.68;;;5.97;;
53036;SDS011;38924;52.134;4.666;2023-04-03T15:43:48;6.80;;;6.10;;
53036;SDS011;38924;52.134;4.666;2023-04-03T15:46:14;7.20;;;6.55;;
53036;SDS011;38924;52.134;4.666;2023-04-03T15:48:40;7.63;;;6.43;;
53036;SDS011;38924;52.134;4.666;2023-04-03T15:51:06;6.10;;;5.63;;
53036;SDS011;38924;52.134;4.666;2023-04-03T15:53:32;7.95;;;5.10;;
53036;SDS011;38924;52.134;4.666;2023-04-03T15:55:57;7.82;;;7.07;;
53036;SDS011;38924;52.134;4.666;2023-04-03T15:58:23;6.15;;;5.55;;
53036;SDS011;38924;52.134;4.666;2023-04-03T16:00:49;6.07;;;5.60;;
53036;SDS011;38924;52.134;4.666;2023-04-03T16:03:16;6.15;;;5.20;;
53036;SDS011;38924;52.134;4.666;2023-04-03T16:05:45;7.10;;;6.53;;
53036;SDS011;38924;52.134;4.666;2023-04-03T16:08:10;6.13;;;5.55;;
53036;SDS011;38924;52.134;4.666;2023-04-03T16:10:37;6.55;;;5.88;;
53036;SDS011;38924;52.134;4.666;2023-04-03T16:13:03;5.88;;;5.38;;
53036;SDS011;38924;52.134;4.666;2023-04-03T16:15:29;7.35;;;4.90;;
53036;SDS011;38924;52.134;4.666;2023-04-03T16:17:56;6.30;;;5.63;;
53036;SDS011;38924;52.134;4.666;2023-04-03T16:20:23;5.50;;;4.95;;
53036;SDS011;38924;52.134;4.666;2023-04-03T16:22:49;6.45;;;4.57;;
53036;SDS011;38924;52.134;4.666;2023-04-03T16:25:17;5.55;;;5.05;;